createdAt,value
2017-05-31T00:00:12.054Z,0
2017-05-31T00:00:52.588Z,0
2017-05-31T00:01:33.221Z,0
2017-05-31T00:02:13.730Z,0
2017-05-31T00:02:54.352Z,0
2017-05-31T00:03:34.883Z,0
2017-05-31T00:04:15.571Z,0
2017-05-31T00:04:56.126Z,0
2017-05-31T00:05:36.776Z,0
2017-05-31T00:06:17.412Z,0
2017-05-31T00:06:58.072Z,0
2017-05-31T00:07:38.713Z,0
2017-05-31T00:08:19.230Z,0
2017-05-31T00:08:59.877Z,0
2017-05-31T00:09:40.501Z,0
2017-05-31T00:10:21.093Z,0
2017-05-31T00:11:02.745Z,0
2017-05-31T00:11:44.417Z,0
2017-05-31T00:12:24.972Z,0
2017-05-31T00:13:05.590Z,0
2017-05-31T00:13:46.210Z,0
2017-05-31T00:14:26.864Z,0
2017-05-31T00:15:08.550Z,0
2017-05-31T00:15:49.091Z,0
2017-05-31T00:16:30.768Z,0
2017-05-31T00:17:12.385Z,0
2017-05-31T00:17:53.004Z,0
2017-05-31T00:18:33.523Z,0
2017-05-31T00:19:14.232Z,0
2017-05-31T00:19:55.896Z,0
2017-05-31T00:20:36.534Z,0
2017-05-31T00:21:17.181Z,0
2017-05-31T00:21:57.851Z,0
2017-05-31T00:22:38.512Z,0
2017-05-31T00:23:19.045Z,0
2017-05-31T00:23:59.604Z,0
2017-05-31T00:24:40.286Z,0
2017-05-31T00:25:21.941Z,0
2017-05-31T00:26:02.474Z,0
2017-05-31T00:26:43.150Z,0
2017-05-31T00:27:23.680Z,0
2017-05-31T00:28:04.217Z,0
2017-05-31T00:28:44.821Z,0
2017-05-31T00:29:25.525Z,0
2017-05-31T00:30:12.118Z,0
2017-05-31T00:30:52.771Z,0
2017-05-31T00:31:33.416Z,0
2017-05-31T00:32:13.958Z,0
2017-05-31T00:32:54.582Z,0
2017-05-31T00:33:35.264Z,0
2017-05-31T00:34:15.907Z,0
2017-05-31T00:34:56.439Z,0
2017-05-31T00:35:37.048Z,0
2017-05-31T00:36:17.571Z,0
2017-05-31T00:36:58.108Z,0
2017-05-31T00:37:38.681Z,0
2017-05-31T00:38:19.308Z,0
2017-05-31T00:38:59.942Z,0
2017-05-31T00:39:40.458Z,0
2017-05-31T00:40:21.215Z,0
2017-05-31T00:41:01.767Z,0
2017-05-31T00:41:42.340Z,0
2017-05-31T00:42:22.909Z,0
2017-05-31T00:43:03.529Z,0
2017-05-31T00:43:44.157Z,0
2017-05-31T00:44:25.838Z,0
2017-05-31T00:45:06.499Z,0
2017-05-31T00:45:48.062Z,0
2017-05-31T00:46:28.821Z,0
2017-05-31T00:47:09.482Z,0
2017-05-31T00:47:50.118Z,0
2017-05-31T00:48:30.674Z,0
2017-05-31T00:49:11.296Z,0
2017-05-31T00:49:51.982Z,0
2017-05-31T00:50:32.659Z,0
2017-05-31T00:51:13.303Z,0
2017-05-31T00:51:53.940Z,0
2017-05-31T00:52:34.603Z,0
2017-05-31T00:53:15.099Z,0
2017-05-31T00:53:55.728Z,0
2017-05-31T00:54:36.378Z,0
2017-05-31T00:55:17.005Z,0
2017-05-31T00:55:57.559Z,0
2017-05-31T00:56:38.210Z,0
2017-05-31T00:57:18.721Z,0
2017-05-31T00:57:59.251Z,0
2017-05-31T00:58:39.868Z,0
2017-05-31T00:59:20.382Z,0
2017-05-31T01:00:00.965Z,0
2017-05-31T01:00:41.633Z,0
2017-05-31T01:01:22.273Z,0
2017-05-31T01:02:02.820Z,0
2017-05-31T01:02:43.418Z,0
2017-05-31T01:03:24.077Z,0
2017-05-31T01:04:04.677Z,0
2017-05-31T01:04:45.223Z,0
2017-05-31T01:05:25.815Z,0
2017-05-31T01:06:06.482Z,0
2017-05-31T01:06:47.013Z,0
2017-05-31T01:07:27.573Z,0
2017-05-31T01:08:08.093Z,0
2017-05-31T01:08:48.742Z,0
2017-05-31T01:09:29.268Z,0
2017-05-31T01:10:09.834Z,0
2017-05-31T01:10:50.354Z,0
2017-05-31T01:11:30.885Z,0
2017-05-31T01:12:11.493Z,0
2017-05-31T01:12:51.998Z,0
2017-05-31T01:13:32.653Z,0
2017-05-31T01:14:13.176Z,0
2017-05-31T01:14:53.893Z,0
2017-05-31T01:15:34.406Z,0
2017-05-31T01:16:14.996Z,0
2017-05-31T01:16:55.542Z,0
2017-05-31T01:17:36.199Z,0
2017-05-31T01:18:16.851Z,0
2017-05-31T01:18:57.505Z,0
2017-05-31T01:19:38.054Z,0
2017-05-31T01:20:18.656Z,0
2017-05-31T01:20:59.270Z,0
2017-05-31T01:21:39.789Z,0
2017-05-31T01:22:20.462Z,0
2017-05-31T01:23:00.964Z,0
2017-05-31T01:23:41.566Z,0
2017-05-31T01:24:22.082Z,0
2017-05-31T01:25:02.604Z,0
2017-05-31T01:25:43.232Z,0
2017-05-31T01:26:23.748Z,0
2017-05-31T01:27:04.388Z,0
2017-05-31T01:27:44.897Z,0
2017-05-31T01:28:25.522Z,0
2017-05-31T01:29:06.052Z,0
2017-05-31T01:29:46.623Z,0
2017-05-31T01:30:27.153Z,0
2017-05-31T01:31:07.664Z,0
2017-05-31T01:31:48.303Z,0
2017-05-31T01:32:28.813Z,0
2017-05-31T01:33:09.380Z,0
2017-05-31T01:33:49.905Z,0
2017-05-31T01:34:30.521Z,0
2017-05-31T01:35:11.065Z,0
2017-05-31T01:35:51.677Z,0
2017-05-31T01:36:32.182Z,0
2017-05-31T01:37:12.781Z,0
2017-05-31T01:37:53.311Z,0
2017-05-31T01:38:33.830Z,0
2017-05-31T01:39:14.444Z,0
2017-05-31T01:39:55.033Z,0
2017-05-31T01:40:35.685Z,0
2017-05-31T01:41:16.342Z,0
2017-05-31T01:41:56.998Z,0
2017-05-31T01:42:37.645Z,0
2017-05-31T01:43:18.303Z,0
2017-05-31T01:43:58.961Z,0
2017-05-31T01:44:39.592Z,0
2017-05-31T01:45:20.268Z,0
2017-05-31T01:46:00.905Z,0
2017-05-31T01:46:41.578Z,0
2017-05-31T01:47:22.240Z,0
2017-05-31T01:48:02.871Z,0
2017-05-31T01:48:44.456Z,0
2017-05-31T01:49:25.100Z,0
2017-05-31T01:50:05.715Z,0
2017-05-31T01:50:46.220Z,0
2017-05-31T01:51:26.854Z,0
2017-05-31T01:52:07.458Z,0
2017-05-31T01:52:48.027Z,0
2017-05-31T01:53:28.606Z,0
2017-05-31T01:54:11.585Z,0
2017-05-31T01:54:52.137Z,0
2017-05-31T01:55:33.119Z,0
2017-05-31T01:56:13.729Z,0
2017-05-31T01:56:54.262Z,0
2017-05-31T01:57:34.875Z,0
2017-05-31T01:58:15.483Z,0
2017-05-31T01:58:56.008Z,0
2017-05-31T01:59:36.634Z,0
2017-05-31T02:00:17.233Z,0
2017-05-31T02:00:57.750Z,0
2017-05-31T02:01:38.371Z,0
2017-05-31T02:02:19.042Z,0
2017-05-31T03:17:50.780Z,16
2017-05-31T03:18:31.314Z,16
2017-05-31T03:19:11.876Z,16
2017-05-31T03:19:52.349Z,16
2017-05-31T03:20:32.867Z,20
2017-05-31T03:21:13.490Z,20
2017-05-31T03:21:54.039Z,16
2017-05-31T03:22:34.611Z,20
2017-05-31T03:23:15.125Z,20
2017-05-31T03:23:55.735Z,24
2017-05-31T03:24:36.255Z,20
2017-05-31T03:25:17.964Z,24
2017-05-31T03:25:58.493Z,24
2017-05-31T03:26:39.054Z,28
2017-05-31T03:27:19.619Z,28
2017-05-31T03:28:00.144Z,28
2017-05-31T03:28:40.724Z,28
2017-05-31T03:29:21.248Z,32
2017-05-31T03:30:01.858Z,32
2017-05-31T03:30:42.352Z,32
2017-05-31T03:31:22.916Z,36
2017-05-31T03:32:03.455Z,36
2017-05-31T03:32:44.105Z,36
2017-05-31T03:33:24.629Z,36
2017-05-31T03:34:05.205Z,36
2017-05-31T03:34:45.718Z,40
2017-05-31T03:35:26.241Z,40
2017-05-31T03:36:06.892Z,44
2017-05-31T03:36:47.407Z,40
2017-05-31T03:37:28.022Z,44
2017-05-31T03:38:08.525Z,44
2017-05-31T03:38:49.073Z,44
2017-05-31T03:39:29.676Z,48
2017-05-31T03:40:10.292Z,48
2017-05-31T03:40:50.814Z,48
2017-05-31T03:41:31.372Z,52
2017-05-31T03:42:12.028Z,52
2017-05-31T03:42:52.597Z,56
2017-05-31T03:43:33.130Z,52
2017-05-31T03:44:13.685Z,56
2017-05-31T03:44:54.298Z,60
2017-05-31T03:45:34.861Z,60
2017-05-31T03:46:15.474Z,60
2017-05-31T03:46:56.026Z,60
2017-05-31T03:47:36.636Z,60
2017-05-31T03:48:17.278Z,64
2017-05-31T03:48:57.845Z,68
2017-05-31T03:49:38.506Z,68
2017-05-31T03:50:19.095Z,68
2017-05-31T03:50:59.656Z,72
2017-05-31T03:51:40.174Z,72
2017-05-31T05:37:12.797Z,444
2017-05-31T05:37:53.326Z,448
2017-05-31T05:38:33.878Z,444
2017-05-31T05:39:14.534Z,428
2017-05-31T05:39:55.107Z,400
2017-05-31T05:40:35.753Z,384
2017-05-31T05:41:16.490Z,364
2017-05-31T05:41:57.415Z,316
2017-05-31T05:42:37.957Z,284
2017-05-31T05:43:18.482Z,268
2017-05-31T05:43:59.134Z,272
2017-05-31T05:44:40.360Z,304
2017-05-31T05:45:21.244Z,356
2017-05-31T05:46:01.814Z,392
2017-05-31T05:46:43.410Z,436
2017-05-31T05:47:24.356Z,444
2017-05-31T05:48:05.047Z,452
2017-05-31T05:48:45.570Z,432
2017-05-31T05:49:26.162Z,416
2017-05-31T05:50:06.686Z,420
2017-05-31T05:50:48.290Z,456
2017-05-31T05:51:28.815Z,516
2017-05-31T05:52:09.392Z,572
2017-05-31T05:52:50.316Z,588
2017-05-31T05:53:30.879Z,548
2017-05-31T05:54:11.518Z,552
2017-05-31T05:54:52.151Z,604
2017-05-31T05:55:32.757Z,652
2017-05-31T05:56:13.302Z,616
2017-05-31T05:56:53.961Z,548
2017-05-31T05:57:34.474Z,572
2017-05-31T05:58:15.091Z,604
2017-05-31T05:58:55.691Z,684
2017-05-31T05:59:36.222Z,692
2017-05-31T06:00:16.831Z,612
2017-05-31T06:00:57.366Z,536
2017-05-31T06:01:38.082Z,484
2017-05-31T06:02:18.607Z,448
2017-05-31T06:02:59.259Z,456
2017-05-31T06:03:39.813Z,472
2017-05-31T06:04:21.451Z,488
2017-05-31T06:05:02.080Z,536
2017-05-31T06:05:42.649Z,560
2017-05-31T06:06:23.311Z,552
2017-05-31T06:07:03.961Z,544
2017-05-31T06:07:44.658Z,560
2017-05-31T06:08:25.173Z,616
2017-05-31T06:09:06.777Z,712
2017-05-31T06:09:47.414Z,736
2017-05-31T06:10:28.008Z,740
2017-05-31T06:11:08.533Z,668
2017-05-31T06:11:49.033Z,604
2017-05-31T06:12:29.733Z,532
2017-05-31T06:13:11.389Z,496
2017-05-31T06:13:53.048Z,476
2017-05-31T06:14:33.702Z,500
2017-05-31T06:15:14.241Z,532
2017-05-31T06:15:54.827Z,588
2017-05-31T06:16:35.373Z,656
2017-05-31T06:17:15.872Z,768
2017-05-31T06:17:56.456Z,808
2017-05-31T06:18:36.978Z,812
2017-05-31T06:19:17.620Z,888
2017-05-31T06:19:58.148Z,940
2017-05-31T06:20:38.919Z,1032
2017-05-31T06:21:19.366Z,1044
2017-05-31T06:22:02.050Z,908
2017-05-31T06:22:43.680Z,812
2017-05-31T06:23:25.382Z,764
2017-05-31T06:24:05.946Z,752
2017-05-31T06:24:46.600Z,696
2017-05-31T06:25:27.176Z,624
2017-05-31T06:26:07.837Z,648
2017-05-31T06:26:48.507Z,612
2017-05-31T06:27:29.168Z,576
2017-05-31T06:28:09.798Z,500
2017-05-31T06:28:50.393Z,460
2017-05-31T06:29:35.547Z,436
2017-05-31T06:30:16.204Z,456
2017-05-31T06:30:56.848Z,404
2017-05-31T06:31:37.505Z,408
2017-05-31T06:32:18.050Z,424
2017-05-31T06:32:58.686Z,452
2017-05-31T06:33:39.202Z,480
2017-05-31T06:34:19.835Z,504
2017-05-31T06:35:00.501Z,540
2017-05-31T06:35:41.110Z,540
2017-05-31T06:36:21.664Z,532
2017-05-31T06:37:02.239Z,496
2017-05-31T06:37:42.773Z,488
2017-05-31T06:38:28.305Z,488
2017-05-31T06:39:08.834Z,484
2017-05-31T06:39:49.436Z,480
2017-05-31T06:40:29.974Z,464
2017-05-31T06:41:10.574Z,456
2017-05-31T06:41:51.248Z,456
2017-05-31T06:42:31.866Z,456
2017-05-31T06:43:12.570Z,448
2017-05-31T06:43:54.170Z,440
2017-05-31T06:44:34.848Z,428
2017-05-31T06:45:15.479Z,424
2017-05-31T06:45:56.148Z,416
2017-05-31T06:46:36.790Z,412
2017-05-31T06:47:23.060Z,404
2017-05-31T06:48:04.638Z,404
2017-05-31T06:48:45.315Z,400
2017-05-31T06:49:27.931Z,400
2017-05-31T06:50:08.431Z,400
2017-05-31T06:50:49.055Z,396
2017-05-31T06:51:29.580Z,396
2017-05-31T06:52:11.219Z,392
2017-05-31T06:52:51.881Z,396
2017-05-31T06:53:37.047Z,392
2017-05-31T06:54:30.585Z,384
2017-05-31T06:55:12.199Z,380
2017-05-31T06:55:53.851Z,376
2017-05-31T06:56:34.509Z,380
2017-05-31T06:57:16.342Z,376
2017-05-31T06:57:56.969Z,376
2017-05-31T06:58:38.628Z,376
2017-05-31T06:59:23.887Z,376
2017-05-31T07:00:07.009Z,380
2017-05-31T07:00:48.144Z,384
2017-05-31T07:01:29.525Z,384
2017-05-31T07:02:10.524Z,388
2017-05-31T07:02:52.460Z,396
2017-05-31T07:03:33.697Z,396
2017-05-31T07:04:14.318Z,400
2017-05-31T07:04:55.964Z,400
2017-05-31T07:05:36.493Z,396
2017-05-31T07:06:19.201Z,396
2017-05-31T07:06:59.808Z,392
2017-05-31T07:07:40.457Z,388
2017-05-31T07:08:20.999Z,392
2017-05-31T07:09:01.635Z,392
2017-05-31T07:09:43.323Z,432
2017-05-31T07:10:24.979Z,392
2017-05-31T07:11:05.605Z,392
2017-05-31T07:11:51.094Z,392
2017-05-31T07:12:31.641Z,392
2017-05-31T07:13:12.357Z,392
2017-05-31T07:13:53.033Z,392
2017-05-31T07:14:35.643Z,388
2017-05-31T07:15:16.181Z,392
2017-05-31T07:15:56.876Z,388
2017-05-31T07:16:37.458Z,392
2017-05-31T07:17:18.000Z,388
2017-05-31T07:17:58.741Z,392
2017-05-31T07:18:39.407Z,392
2017-05-31T07:19:22.052Z,392
2017-05-31T07:20:02.570Z,404
2017-05-31T07:20:43.135Z,404
2017-05-31T07:21:24.756Z,420
2017-05-31T07:22:05.333Z,420
2017-05-31T07:22:45.936Z,416
2017-05-31T07:23:26.480Z,416
2017-05-31T07:24:07.191Z,416
2017-05-31T07:24:47.847Z,416
2017-05-31T07:25:29.478Z,460
2017-05-31T07:26:09.991Z,452
2017-05-31T07:26:50.691Z,412
2017-05-31T07:27:33.387Z,412
2017-05-31T07:28:15.050Z,420
2017-05-31T07:28:55.558Z,424
2017-05-31T07:29:36.172Z,408
2017-05-31T07:30:16.973Z,424
2017-05-31T07:30:57.559Z,420
2017-05-31T07:31:38.131Z,424
2017-05-31T07:32:18.811Z,440
2017-05-31T07:32:59.481Z,460
2017-05-31T07:33:40.169Z,480
2017-05-31T07:34:20.698Z,452
2017-05-31T07:35:01.319Z,448
2017-05-31T07:35:42.925Z,452
2017-05-31T07:36:23.532Z,468
2017-05-31T07:37:08.806Z,632
2017-05-31T07:37:49.391Z,688
2017-05-31T07:38:29.917Z,768
2017-05-31T07:39:10.538Z,648
2017-05-31T07:39:53.214Z,708
2017-05-31T07:40:33.775Z,812
2017-05-31T07:41:16.427Z,852
2017-05-31T07:41:58.105Z,752
2017-05-31T07:42:38.782Z,600
2017-05-31T07:43:19.302Z,616
2017-05-31T07:43:59.921Z,832
2017-05-31T07:44:40.570Z,804
2017-05-31T07:45:22.186Z,772
2017-05-31T07:46:02.727Z,584
2017-05-31T07:46:44.319Z,612
2017-05-31T07:47:24.863Z,660
2017-05-31T07:48:06.435Z,752
2017-05-31T07:48:46.983Z,868
2017-05-31T07:49:27.529Z,940
2017-05-31T07:50:13.005Z,932
2017-05-31T07:50:53.555Z,860
2017-05-31T07:51:34.108Z,784
2017-05-31T07:52:15.684Z,692
2017-05-31T07:52:56.228Z,588
2017-05-31T07:53:36.804Z,540
2017-05-31T07:54:17.434Z,480
2017-05-31T07:54:57.992Z,464
2017-05-31T07:55:38.635Z,476
2017-05-31T07:56:19.169Z,540
2017-05-31T07:57:00.255Z,596
2017-05-31T07:57:40.901Z,708
2017-05-31T07:58:21.556Z,900
2017-05-31T07:59:08.044Z,944
2017-05-31T07:59:48.601Z,744
2017-05-31T08:00:29.249Z,636
2017-05-31T08:01:09.801Z,588
2017-05-31T08:01:50.354Z,496
2017-05-31T08:02:30.884Z,464
2017-05-31T08:03:11.524Z,456
2017-05-31T08:03:52.121Z,508
2017-05-31T08:04:32.675Z,556
2017-05-31T08:05:13.252Z,644
2017-05-31T08:05:53.874Z,808
2017-05-31T08:06:35.492Z,1000
2017-05-31T08:07:16.085Z,956
2017-05-31T08:07:56.648Z,960
2017-05-31T08:08:49.067Z,836
2017-05-31T08:09:29.598Z,752
2017-05-31T08:10:10.149Z,700
2017-05-31T08:10:50.758Z,708
2017-05-31T08:11:31.360Z,796
2017-05-31T08:12:11.912Z,644
2017-05-31T08:12:52.500Z,612
2017-05-31T08:13:33.122Z,620
2017-05-31T08:14:14.695Z,672
2017-05-31T08:14:55.211Z,852
2017-05-31T08:15:35.790Z,880
2017-05-31T08:16:16.331Z,888
2017-05-31T08:16:56.892Z,804
2017-05-31T08:17:37.438Z,796
2017-05-31T08:18:17.984Z,768
2017-05-31T08:18:58.643Z,904
2017-05-31T08:19:39.214Z,1008
2017-05-31T08:20:19.740Z,1120
2017-05-31T08:21:00.421Z,1044
2017-05-31T08:21:41.049Z,876
2017-05-31T08:22:21.603Z,808
2017-05-31T08:23:02.162Z,812
2017-05-31T08:23:42.700Z,772
2017-05-31T08:24:23.367Z,884
2017-05-31T08:25:03.906Z,968
2017-05-31T08:25:44.441Z,968
2017-05-31T08:26:25.021Z,952
2017-05-31T08:27:05.604Z,940
2017-05-31T08:27:46.213Z,936
2017-05-31T08:28:26.751Z,720
2017-05-31T08:29:07.365Z,624
2017-05-31T08:29:47.963Z,632
2017-05-31T08:30:28.538Z,640
2017-05-31T08:31:09.060Z,680
2017-05-31T08:31:49.626Z,668
2017-05-31T08:32:30.241Z,704
2017-05-31T08:33:10.852Z,724
2017-05-31T08:33:51.380Z,968
2017-05-31T08:34:32.088Z,1016
2017-05-31T08:35:13.160Z,1192
2017-05-31T08:35:54.048Z,1080
2017-05-31T08:36:34.889Z,1044
2017-05-31T08:37:15.451Z,940
2017-05-31T08:37:56.005Z,912
2017-05-31T08:38:36.581Z,956
2017-05-31T08:39:17.246Z,1020
2017-05-31T08:39:57.822Z,940
2017-05-31T08:40:38.425Z,908
2017-05-31T08:41:18.961Z,840
2017-05-31T08:41:59.579Z,840
2017-05-31T08:42:40.085Z,760
2017-05-31T08:43:20.684Z,892
2017-05-31T08:44:01.219Z,992
2017-05-31T08:44:41.847Z,732
2017-05-31T08:45:22.339Z,684
2017-05-31T08:46:03.913Z,584
2017-05-31T08:46:44.473Z,592
2017-05-31T08:47:25.111Z,648
2017-05-31T08:48:05.771Z,648
2017-05-31T08:48:46.264Z,948
2017-05-31T08:49:26.982Z,1152
2017-05-31T08:50:07.537Z,1264
2017-05-31T08:50:48.142Z,1412
2017-05-31T08:51:28.801Z,1496
2017-05-31T08:52:09.409Z,1492
2017-05-31T08:52:49.922Z,1384
2017-05-31T08:53:30.474Z,1544
2017-05-31T08:54:11.021Z,1404
2017-05-31T08:54:51.633Z,1448
2017-05-31T08:55:32.190Z,1268
2017-05-31T08:56:12.712Z,1284
2017-05-31T08:56:53.249Z,1068
2017-05-31T08:57:33.751Z,1016
2017-05-31T08:58:14.282Z,788
2017-05-31T08:58:54.923Z,556
2017-05-31T08:59:35.842Z,512
2017-05-31T09:00:16.433Z,476
2017-05-31T09:00:56.946Z,816
2017-05-31T09:01:37.549Z,804
2017-05-31T09:02:18.072Z,800
2017-05-31T09:02:58.654Z,796
2017-05-31T09:03:39.185Z,812
2017-05-31T09:04:19.832Z,820
2017-05-31T09:05:00.551Z,828
2017-05-31T09:05:41.073Z,820
2017-05-31T09:06:21.715Z,820
2017-05-31T09:07:02.247Z,812
2017-05-31T09:07:42.870Z,804
2017-05-31T09:08:23.401Z,860
2017-05-31T09:09:04.049Z,920
2017-05-31T09:09:44.569Z,1016
2017-05-31T09:10:25.178Z,972
2017-05-31T09:11:05.680Z,1028
2017-05-31T09:11:46.203Z,1036
2017-05-31T09:12:26.834Z,956
2017-05-31T09:13:07.379Z,972
2017-05-31T09:13:48.040Z,928
2017-05-31T09:14:28.560Z,1020
2017-05-31T09:15:09.087Z,1044
2017-05-31T09:15:49.713Z,1080
2017-05-31T09:16:30.430Z,780
2017-05-31T09:17:10.964Z,1016
2017-05-31T09:17:51.572Z,1136
2017-05-31T09:18:32.120Z,948
2017-05-31T09:19:12.741Z,1276
2017-05-31T09:19:53.305Z,1388
2017-05-31T09:20:33.849Z,1132
2017-05-31T09:21:14.415Z,1144
2017-05-31T09:21:54.936Z,1296
2017-05-31T09:22:35.499Z,1428
2017-05-31T09:23:16.046Z,1496
2017-05-31T09:23:56.586Z,1608
2017-05-31T09:24:37.176Z,1548
2017-05-31T09:25:17.688Z,1608
2017-05-31T09:25:58.293Z,1612
2017-05-31T09:26:38.829Z,1552
2017-05-31T09:27:19.431Z,1448
2017-05-31T09:27:59.976Z,1228
2017-05-31T09:28:40.558Z,1132
2017-05-31T09:29:21.090Z,980
2017-05-31T09:30:01.638Z,1088
2017-05-31T09:30:42.157Z,1136
2017-05-31T09:31:22.670Z,1172
2017-05-31T09:32:03.207Z,1184
2017-05-31T09:32:43.731Z,1112
2017-05-31T09:33:24.305Z,1072
2017-05-31T09:34:04.881Z,1120
2017-05-31T09:34:45.475Z,1232
2017-05-31T09:35:25.992Z,1216
2017-05-31T09:36:06.533Z,1128
2017-05-31T09:36:47.083Z,1156
2017-05-31T09:37:27.661Z,1224
2017-05-31T09:38:19.039Z,1604
2017-05-31T09:39:06.562Z,1608
2017-05-31T09:39:47.117Z,1596
2017-05-31T09:40:28.679Z,1584
2017-05-31T09:41:09.216Z,1440
2017-05-31T09:41:49.788Z,1352
2017-05-31T09:42:30.381Z,1264
2017-05-31T09:43:11.325Z,1192
2017-05-31T09:43:51.891Z,1040
2017-05-31T09:44:32.414Z,1196
2017-05-31T09:45:12.944Z,1312
2017-05-31T09:45:53.483Z,1264
2017-05-31T09:46:34.089Z,1052
2017-05-31T09:47:20.299Z,1168
2017-05-31T09:48:01.903Z,1208
2017-05-31T09:48:42.432Z,1124
2017-05-31T09:49:23.022Z,1144
2017-05-31T09:50:03.629Z,1176
2017-05-31T09:50:45.234Z,1208
2017-05-31T09:51:25.759Z,1656
2017-05-31T09:52:08.337Z,1764
2017-05-31T09:52:49.008Z,1700
2017-05-31T09:53:29.556Z,1652
2017-05-31T09:54:10.126Z,1324
2017-05-31T09:54:50.687Z,1268
2017-05-31T09:55:31.245Z,1388
2017-05-31T09:56:11.870Z,1684
2017-05-31T09:56:52.391Z,1708
2017-05-31T09:57:33.047Z,1408
2017-05-31T09:58:13.629Z,1408
2017-05-31T09:58:54.135Z,1620
2017-05-31T09:59:34.700Z,1204
2017-05-31T10:00:15.270Z,1244
2017-05-31T10:00:55.818Z,1132
2017-05-31T10:01:36.570Z,1028
2017-05-31T10:02:17.135Z,1012
2017-05-31T10:02:57.684Z,1032
2017-05-31T10:03:38.285Z,1072
2017-05-31T10:04:19.345Z,1136
2017-05-31T10:04:59.944Z,1244
2017-05-31T10:05:40.490Z,1292
2017-05-31T10:06:21.091Z,1156
2017-05-31T10:07:01.742Z,1080
2017-05-31T10:07:42.382Z,964
2017-05-31T10:08:22.920Z,860
2017-05-31T10:09:03.565Z,724
2017-05-31T10:09:44.210Z,632
2017-05-31T10:10:24.920Z,524
2017-05-31T10:11:05.444Z,404
2017-05-31T10:11:45.987Z,340
2017-05-31T10:12:26.498Z,320
2017-05-31T10:13:07.184Z,316
2017-05-31T10:13:47.734Z,356
2017-05-31T10:14:28.347Z,416
2017-05-31T10:15:09.043Z,488
2017-05-31T10:15:49.596Z,568
2017-05-31T10:16:30.286Z,628
2017-05-31T10:17:10.896Z,696
2017-05-31T10:17:52.469Z,760
2017-05-31T10:18:33.099Z,776
2017-05-31T10:19:13.676Z,808
2017-05-31T10:19:54.242Z,840
2017-05-31T10:20:36.854Z,844
2017-05-31T10:21:17.386Z,772
2017-05-31T10:21:57.956Z,752
2017-05-31T10:22:38.567Z,724
2017-05-31T10:23:19.208Z,708
2017-05-31T10:23:59.775Z,680
2017-05-31T10:24:40.378Z,676
2017-05-31T10:25:21.013Z,1032
2017-05-31T10:26:01.612Z,920
2017-05-31T10:26:42.146Z,724
2017-05-31T10:27:22.717Z,748
2017-05-31T10:28:03.359Z,772
2017-05-31T10:28:43.892Z,832
2017-05-31T10:29:24.474Z,808
2017-05-31T10:30:05.077Z,768
2017-05-31T10:30:45.665Z,688
2017-05-31T10:31:28.279Z,620
2017-05-31T10:32:08.921Z,900
2017-05-31T10:32:49.479Z,704
2017-05-31T10:33:30.051Z,916
2017-05-31T10:34:10.623Z,868
2017-05-31T10:34:51.226Z,860
2017-05-31T10:35:31.780Z,992
2017-05-31T10:36:12.314Z,1072
2017-05-31T10:36:52.911Z,1128
2017-05-31T10:37:33.483Z,840
2017-05-31T10:38:14.147Z,928
2017-05-31T10:38:54.587Z,812
2017-05-31T10:39:35.248Z,1236
2017-05-31T10:40:15.886Z,1212
2017-05-31T10:40:56.905Z,972
2017-05-31T10:41:37.438Z,940
2017-05-31T10:42:18.065Z,956
2017-05-31T10:42:58.655Z,1076
2017-05-31T10:43:39.208Z,1072
2017-05-31T10:44:19.830Z,1060
2017-05-31T10:45:00.450Z,1000
2017-05-31T10:45:40.970Z,1072
2017-05-31T10:46:21.573Z,1248
2017-05-31T10:47:02.161Z,1504
2017-05-31T10:47:42.775Z,1280
2017-05-31T10:48:24.410Z,1332
2017-05-31T10:49:05.000Z,1696
2017-05-31T10:49:45.625Z,1484
2017-05-31T10:50:26.171Z,1424
2017-05-31T10:51:06.809Z,1660
2017-05-31T10:51:47.409Z,1588
2017-05-31T10:52:27.998Z,1352
2017-05-31T10:53:08.531Z,1408
2017-05-31T10:53:49.147Z,1056
2017-05-31T10:54:29.754Z,956
2017-05-31T10:55:10.428Z,920
2017-05-31T10:55:51.049Z,904
2017-05-31T10:56:31.823Z,896
2017-05-31T10:57:12.530Z,940
2017-05-31T10:57:53.162Z,1000
2017-05-31T10:58:33.786Z,1036
2017-05-31T10:59:14.577Z,1080
2017-05-31T10:59:55.129Z,1080
2017-05-31T11:00:35.753Z,1156
2017-05-31T11:01:16.346Z,1180
2017-05-31T11:01:57.060Z,1332
2017-05-31T11:02:37.622Z,1208
2017-05-31T11:03:18.141Z,1384
2017-05-31T11:03:58.666Z,1224
2017-05-31T11:04:39.458Z,1544
2017-05-31T11:05:19.973Z,1420
2017-05-31T11:06:00.675Z,1660
2017-05-31T11:06:41.353Z,1656
2017-05-31T11:07:21.904Z,1636
2017-05-31T11:08:02.449Z,1452
2017-05-31T11:08:43.109Z,1544
2017-05-31T11:09:23.891Z,1392
2017-05-31T11:10:04.492Z,1328
2017-05-31T11:10:45.133Z,1344
2017-05-31T11:40:35.868Z,568
2017-05-31T11:41:16.403Z,616
2017-05-31T11:41:58.026Z,676
2017-05-31T11:42:38.563Z,688
2017-05-31T13:03:01.681Z,1240
2017-05-31T13:03:42.184Z,1272
2017-05-31T13:16:40.732Z,160
2017-05-31T13:17:26.344Z,160
2017-05-31T13:18:17.547Z,168
2017-05-31T13:18:58.097Z,168
2017-05-31T13:19:43.567Z,172
2017-05-31T13:20:24.090Z,164
2017-05-31T13:21:11.717Z,152
2017-05-31T13:21:57.079Z,144
2017-05-31T13:22:37.732Z,148
2017-05-31T13:23:18.274Z,152
2017-05-31T13:47:56.821Z,132
2017-05-31T13:48:37.418Z,148
2017-05-31T13:49:18.070Z,180
2017-05-31T13:49:58.607Z,208
2017-05-31T13:50:39.312Z,232
2017-05-31T13:51:19.826Z,248
2017-05-31T13:52:00.430Z,256
2017-05-31T13:52:41.071Z,260
2017-05-31T13:53:21.623Z,260
2017-05-31T13:54:02.271Z,244
2017-05-31T13:54:42.814Z,228
2017-05-31T13:55:23.399Z,224
2017-05-31T13:56:04.251Z,224
2017-05-31T13:56:44.843Z,224
2017-05-31T13:57:25.831Z,224
2017-05-31T13:58:06.393Z,228
2017-05-31T13:58:46.968Z,244
2017-05-31T13:59:28.674Z,256
2017-05-31T14:00:09.246Z,272
2017-05-31T14:00:49.795Z,288
2017-05-31T14:01:30.499Z,312
2017-05-31T14:02:11.069Z,336
2017-05-31T14:02:51.645Z,348
2017-05-31T14:03:32.231Z,364
2017-05-31T14:04:12.884Z,376
2017-05-31T14:04:53.421Z,384
2017-05-31T14:05:33.975Z,376
2017-05-31T14:06:14.500Z,352
2017-05-31T14:06:55.078Z,344
2017-05-31T14:07:35.739Z,340
2017-05-31T14:08:16.384Z,324
2017-05-31T14:08:56.944Z,304
2017-05-31T14:09:37.698Z,292
2017-05-31T14:10:18.249Z,292
2017-05-31T14:10:58.775Z,284
2017-05-31T14:11:39.383Z,280
2017-05-31T14:12:20.035Z,268
2017-05-31T14:13:00.672Z,268
2017-05-31T14:13:41.355Z,272
2017-05-31T14:14:21.955Z,324
2017-05-31T14:15:02.478Z,308
2017-05-31T14:15:43.017Z,316
2017-05-31T14:16:23.613Z,328
2017-05-31T14:17:04.155Z,352
2017-05-31T14:17:44.719Z,384
2017-05-31T14:18:25.237Z,404
2017-05-31T14:19:05.760Z,424
2017-05-31T14:19:46.307Z,452
2017-05-31T14:20:27.328Z,504
2017-05-31T14:21:07.931Z,560
2017-05-31T14:21:48.532Z,620
2017-05-31T14:22:29.073Z,688
2017-05-31T14:23:09.606Z,748
2017-05-31T14:23:50.201Z,820
2017-05-31T14:24:30.763Z,900
2017-05-31T14:25:11.274Z,956
2017-05-31T14:25:51.803Z,1060
2017-05-31T14:26:32.419Z,1084
2017-05-31T14:27:12.936Z,1168
2017-05-31T14:27:53.444Z,1168
2017-05-31T14:28:34.034Z,1180
2017-05-31T14:29:14.680Z,1156
2017-05-31T14:29:55.237Z,1112
2017-05-31T14:30:35.755Z,1092
2017-05-31T14:31:16.339Z,1060
2017-05-31T14:31:56.850Z,1020
2017-05-31T14:32:37.615Z,980
2017-05-31T14:33:18.298Z,932
2017-05-31T14:33:58.830Z,948
2017-05-31T14:34:39.456Z,936
2017-05-31T14:35:20.078Z,848
2017-05-31T14:36:00.604Z,780
2017-05-31T14:36:41.480Z,744
2017-05-31T14:37:22.102Z,720
2017-05-31T14:38:02.639Z,672
2017-05-31T14:38:43.242Z,620
2017-05-31T14:39:23.855Z,568
2017-05-31T14:40:04.422Z,520
2017-05-31T14:40:45.051Z,492
2017-05-31T14:41:25.622Z,480
2017-05-31T14:42:06.265Z,508
2017-05-31T14:42:46.877Z,540
2017-05-31T14:43:27.433Z,576
2017-05-31T14:44:07.977Z,632
2017-05-31T14:44:48.532Z,680
2017-05-31T14:45:29.099Z,712
2017-05-31T14:46:09.735Z,692
2017-05-31T14:46:50.283Z,732
2017-05-31T14:47:30.855Z,824
2017-05-31T14:48:11.401Z,876
2017-05-31T14:48:51.991Z,892
2017-05-31T14:49:32.552Z,872
2017-05-31T14:50:13.120Z,848
2017-05-31T14:50:53.762Z,852
2017-05-31T14:51:34.276Z,900
2017-05-31T14:52:14.889Z,940
2017-05-31T14:52:55.477Z,972